sensor_id;sensor_type;location;lat;lon;timestamp;temperature;humidity
17813;DHT22;9030;50.792;8.320;2023-07-29T00:00:38;16.70;99.90
17813;DHT22;9030;50.792;8.320;2023-07-29T00:03:05;16.80;99.90
17813;DHT22;9030;50.792;8.320;2023-07-29T00:05:31;16.80;99.90
17813;DHT22;9030;50.792;8.320;2023-07-29T00:07:58;16.90;99.90
17813;DHT22;9030;50.792;8.320;2023-07-29T00:10:25;16.90;99.90
17813;DHT22;9030;50.792;8.320;2023-07-29T00:12:53;16.90;99.90
17813;DHT22;9030;50.792;8.320;2023-07-29T00:15:19;16.90;99.90
17813;DHT22;9030;50.792;8.320;2023-07-29T00:17:46;16.90;99.90
17813;DHT22;9030;50.792;8.320;2023-07-29T00:20:13;17.00;99.90
17813;DHT22;9030;50.792;8.320;2023-07-29T00:22:39;17.00;99.90
17813;DHT22;9030;50.792;8.320;2023-07-29T00:25:06;17.00;99.90
17813;DHT22;9030;50.792;8.320;2023-07-29T00:27:33;17.00;99.90
17813;DHT22;9030;50.792;8.320;2023-07-29T00:30:01;17.10;99.90
17813;DHT22;9030;50.792;8.320;2023-07-29T00:32:29;17.20;99.90
17813;DHT22;9030;50.792;8.320;2023-07-29T00:34:56;17.30;99.90
17813;DHT22;9030;50.792;8.320;2023-07-29T00:37:23;17.40;99.90
17813;DHT22;9030;50.792;8.320;2023-07-29T00:39:49;17.40;99.90
17813;DHT22;9030;50.792;8.320;2023-07-29T00:42:16;17.40;99.90
17813;DHT22;9030;50.792;8.320;2023-07-29T00:44:42;17.40;99.90
17813;DHT22;9030;50.792;8.320;2023-07-29T00:47:11;17.40;99.90
17813;DHT22;9030;50.792;8.320;2023-07-29T00:49:39;17.40;99.90
17813;DHT22;9030;50.792;8.320;2023-07-29T00:52:06;17.50;99.90
17813;DHT22;9030;50.792;8.320;2023-07-29T00:54:33;17.40;99.90
17813;DHT22;9030;50.792;8.320;2023-07-29T00:56:59;17.50;99.90
17813;DHT22;9030;50.792;8.320;2023-07-29T00:59:26;17.50;99.90
17813;DHT22;9030;50.792;8.320;2023-07-29T01:01:55;17.50;99.90
17813;DHT22;9030;50.792;8.320;2023-07-29T01:04:24;17.40;99.90
17813;DHT22;9030;50.792;8.320;2023-07-29T01:07:01;17.40;99.90
17813;DHT22;9030;50.792;8.320;2023-07-29T01:09:33;17.50;99.90
17813;DHT22;9030;50.792;8.320;2023-07-29T01:12:08;17.50;99.90
17813;DHT22;9030;50.792;8.320;2023-07-29T01:14:43;17.50;99.90
17813;DHT22;9030;50.792;8.320;2023-07-29T01:17:15;17.50;99.90
17813;DHT22;9030;50.792;8.320;2023-07-29T01:19:59;17.50;99.90
17813;DHT22;9030;50.792;8.320;2023-07-29T01:22:26;17.50;99.90
17813;DHT22;9030;50.792;8.320;2023-07-29T01:24:56;17.50;99.90
17813;DHT22;9030;50.792;8.320;2023-07-29T01:27:23;17.60;99.90
17813;DHT22;9030;50.792;8.320;2023-07-29T01:29:50;17.50;99.90
17813;DHT22;9030;50.792;8.320;2023-07-29T01:32:20;17.50;99.90
17813;DHT22;9030;50.792;8.320;2023-07-29T01:34:53;17.60;99.90
17813;DHT22;9030;50.792;8.320;2023-07-29T01:37:26;17.50;99.90
17813;DHT22;9030;50.792;8.320;2023-07-29T01:39:56;17.50;99.90
17813;DHT22;9030;50.792;8.320;2023-07-29T01:42:24;17.50;99.90
17813;DHT22;9030;50.792;8.320;2023-07-29T01:44:52;17.50;99.90
17813;DHT22;9030;50.792;8.320;2023-07-29T01:47:18;17.50;99.90
17813;DHT22;9030;50.792;8.320;2023-07-29T01:49:45;17.50;99.90
17813;DHT22;9030;50.792;8.320;2023-07-29T01:52:11;17.50;99.90
17813;DHT22;9030;50.792;8.320;2023-07-29T01:54:38;17.50;99.90
17813;DHT22;9030;50.792;8.320;2023-07-29T01:57:06;17.50;99.90
17813;DHT22;9030;50.792;8.320;2023-07-29T01:59:33;17.50;99.90
17813;DHT22;9030;50.792;8.320;2023-07-29T02:01:59;17.50;99.90
17813;DHT22;9030;50.792;8.320;2023-07-29T02:04:26;17.50;99.90
17813;DHT22;9030;50.792;8.320;2023-07-29T02:06:52;17.40;99.90
17813;DHT22;9030;50.792;8.320;2023-07-29T02:09:20;17.50;99.90
17813;DHT22;9030;50.792;8.320;2023-07-29T02:11:47;17.50;99.90
17813;DHT22;9030;50.792;8.320;2023-07-29T02:14:15;17.40;99.90
17813;DHT22;9030;50.792;8.320;2023-07-29T02:16:41;17.50;99.90
17813;DHT22;9030;50.792;8.320;2023-07-29T02:19:08;17.40;99.90
17813;DHT22;9030;50.792;8.320;2023-07-29T02:21:34;17.50;99.90
17813;DHT22;9030;50.792;8.320;2023-07-29T02:24:01;17.40;99.90
17813;DHT22;9030;50.792;8.320;2023-07-29T02:26:28;17.40;99.90
17813;DHT22;9030;50.792;8.320;2023-07-29T02:28:54;17.40;99.90
17813;DHT22;9030;50.792;8.320;2023-07-29T02:31:24;17.40;99.90
17813;DHT22;9030;50.792;8.320;2023-07-29T02:33:51;17.40;99.90
17813;DHT22;9030;50.792;8.320;2023-07-29T02:36:18;17.40;99.90
17813;DHT22;9030;50.792;8.320;2023-07-29T02:38:45;17.40;99.90
17813;DHT22;9030;50.792;8.320;2023-07-29T02:41:12;17.30;99.90
17813;DHT22;9030;50.792;8.320;2023-07-29T02:43:38;17.40;99.90
17813;DHT22;9030;50.792;8.320;2023-07-29T02:46:06;17.30;99.90
17813;DHT22;9030;50.792;8.320;2023-07-29T02:48:34;17.40;99.90
17813;DHT22;9030;50.792;8.320;2023-07-29T02:51:00;17.40;99.90
17813;DHT22;9030;50.792;8.320;2023-07-29T02:53:27;17.40;99.90
17813;DHT22;9030;50.792;8.320;2023-07-29T02:55:54;17.40;99.90
17813;DHT22;9030;50.792;8.320;2023-07-29T02:58:20;17.40;99.90
17813;DHT22;9030;50.792;8.320;2023-07-29T03:00:47;17.30;99.90
17813;DHT22;9030;50.792;8.320;2023-07-29T03:03:14;17.40;99.90
17813;DHT22;9030;50.792;8.320;2023-07-29T03:05:42;17.40;99.90
17813;DHT22;9030;50.792;8.320;2023-07-29T03:08:08;17.40;99.90
17813;DHT22;9030;50.792;8.320;2023-07-29T03:10:35;17.40;99.90
17813;DHT22;9030;50.792;8.320;2023-07-29T03:13:02;17.40;99.90
17813;DHT22;9030;50.792;8.320;2023-07-29T03:15:29;17.40;99.90
17813;DHT22;9030;50.792;8.320;2023-07-29T03:17:55;17.40;99.90
17813;DHT22;9030;50.792;8.320;2023-07-29T03:20:22;17.40;99.90
17813;DHT22;9030;50.792;8.320;2023-07-29T03:22:50;17.40;99.90
17813;DHT22;9030;50.792;8.320;2023-07-29T03:25:16;17.30;99.90
17813;DHT22;9030;50.792;8.320;2023-07-29T03:27:43;17.40;99.90
17813;DHT22;9030;50.792;8.320;2023-07-29T03:30:10;17.30;99.90
17813;DHT22;9030;50.792;8.320;2023-07-29T03:32:42;17.40;99.90
17813;DHT22;9030;50.792;8.320;2023-07-29T03:35:09;17.40;99.90
17813;DHT22;9030;50.792;8.320;2023-07-29T03:37:36;17.40;99.90
17813;DHT22;9030;50.792;8.320;2023-07-29T03:40:05;17.30;99.90
17813;DHT22;9030;50.792;8.320;2023-07-29T03:42:32;17.40;99.90
17813;DHT22;9030;50.792;8.320;2023-07-29T03:44:59;17.40;99.90
17813;DHT22;9030;50.792;8.320;2023-07-29T03:47:26;17.40;99.90
17813;DHT22;9030;50.792;8.320;2023-07-29T03:49:52;17.40;99.90
17813;DHT22;9030;50.792;8.320;2023-07-29T03:52:19;17.40;99.90
17813;DHT22;9030;50.792;8.320;2023-07-29T03:54:46;17.40;99.90
17813;DHT22;9030;50.792;8.320;2023-07-29T03:57:14;17.40;99.90
17813;DHT22;9030;50.792;8.320;2023-07-29T03:59:40;17.40;99.90
17813;DHT22;9030;50.792;8.320;2023-07-29T04:02:07;17.50;99.90
17813;DHT22;9030;50.792;8.320;2023-07-29T04:04:34;17.40;99.90
17813;DHT22;9030;50.792;8.320;2023-07-29T04:07:01;17.50;99.90
17813;DHT22;9030;50.792;8.320;2023-07-29T04:09:28;17.50;99.90
17813;DHT22;9030;50.792;8.320;2023-07-29T04:11:54;17.50;99.90
17813;DHT22;9030;50.792;8.320;2023-07-29T04:14:22;17.50;99.90
17813;DHT22;9030;50.792;8.320;2023-07-29T04:16:49;17.50;99.90
17813;DHT22;9030;50.792;8.320;2023-07-29T04:19:16;17.50;99.90
17813;DHT22;9030;50.792;8.320;2023-07-29T04:21:42;17.50;99.90
17813;DHT22;9030;50.792;8.320;2023-07-29T04:24:09;17.50;99.90
17813;DHT22;9030;50.792;8.320;2023-07-29T04:26:35;17.50;99.90
17813;DHT22;9030;50.792;8.320;2023-07-29T04:29:04;17.50;99.90
17813;DHT22;9030;50.792;8.320;2023-07-29T04:31:32;17.50;99.90
17813;DHT22;9030;50.792;8.320;2023-07-29T04:33:58;17.50;99.90
17813;DHT22;9030;50.792;8.320;2023-07-29T04:36:25;17.60;99.90
17813;DHT22;9030;50.792;8.320;2023-07-29T04:38:52;17.60;99.90
17813;DHT22;9030;50.792;8.320;2023-07-29T04:41:18;17.60;99.90
17813;DHT22;9030;50.792;8.320;2023-07-29T04:43:45;17.60;99.90
17813;DHT22;9030;50.792;8.320;2023-07-29T04:46:12;17.60;99.90
17813;DHT22;9030;50.792;8.320;2023-07-29T04:48:40;17.60;99.90
17813;DHT22;9030;50.792;8.320;2023-07-29T04:51:06;17.60;99.90
17813;DHT22;9030;50.792;8.320;2023-07-29T04:53:33;17.60;99.90
17813;DHT22;9030;50.792;8.320;2023-07-29T04:56:00;17.60;99.90
17813;DHT22;9030;50.792;8.320;2023-07-29T04:58:27;17.60;99.90
17813;DHT22;9030;50.792;8.320;2023-07-29T05:00:55;17.60;99.90
17813;DHT22;9030;50.792;8.320;2023-07-29T05:03:21;17.60;99.90
17813;DHT22;9030;50.792;8.320;2023-07-29T05:05:49;17.60;99.90
17813;DHT22;9030;50.792;8.320;2023-07-29T05:08:17;17.60;99.90
17813;DHT22;9030;50.792;8.320;2023-07-29T05:10:43;17.70;99.90
17813;DHT22;9030;50.792;8.320;2023-07-29T05:13:10;17.70;99.90
17813;DHT22;9030;50.792;8.320;2023-07-29T05:15:36;17.80;99.90
17813;DHT22;9030;50.792;8.320;2023-07-29T05:18:03;17.80;99.90
17813;DHT22;9030;50.792;8.320;2023-07-29T05:20:30;17.90;99.90
17813;DHT22;9030;50.792;8.320;2023-07-29T05:22:58;17.90;99.90
17813;DHT22;9030;50.792;8.320;2023-07-29T05:25:24;17.90;99.90
17813;DHT22;9030;50.792;8.320;2023-07-29T05:27:51;17.90;99.90
17813;DHT22;9030;50.792;8.320;2023-07-29T05:30:17;17.90;99.90
17813;DHT22;9030;50.792;8.320;2023-07-29T05:32:44;17.90;99.90
17813;DHT22;9030;50.792;8.320;2023-07-29T05:35:11;17.90;99.90
17813;DHT22;9030;50.792;8.320;2023-07-29T05:37:38;17.90;99.90
17813;DHT22;9030;50.792;8.320;2023-07-29T05:40:07;18.00;99.90
17813;DHT22;9030;50.792;8.320;2023-07-29T05:42:35;18.00;99.90
17813;DHT22;9030;50.792;8.320;2023-07-29T05:45:02;18.00;99.90
17813;DHT22;9030;50.792;8.320;2023-07-29T05:47:29;18.10;99.90
17813;DHT22;9030;50.792;8.320;2023-07-29T05:49:55;18.20;99.90
17813;DHT22;9030;50.792;8.320;2023-07-29T05:52:22;18.30;99.90
17813;DHT22;9030;50.792;8.320;2023-07-29T05:54:48;18.30;99.90
17813;DHT22;9030;50.792;8.320;2023-07-29T05:57:16;18.40;99.90
17813;DHT22;9030;50.792;8.320;2023-07-29T05:59:43;18.40;99.90
17813;DHT22;9030;50.792;8.320;2023-07-29T06:02:10;18.50;99.90
17813;DHT22;9030;50.792;8.320;2023-07-29T06:04:36;18.60;99.90
17813;DHT22;9030;50.792;8.320;2023-07-29T06:07:03;18.80;99.90
17813;DHT22;9030;50.792;8.320;2023-07-29T06:09:30;19.00;99.90
17813;DHT22;9030;50.792;8.320;2023-07-29T06:11:57;19.30;99.90
17813;DHT22;9030;50.792;8.320;2023-07-29T06:14:25;19.40;99.90
17813;DHT22;9030;50.792;8.320;2023-07-29T06:16:52;19.50;99.90
17813;DHT22;9030;50.792;8.320;2023-07-29T06:19:19;19.40;99.90
17813;DHT22;9030;50.792;8.320;2023-07-29T06:21:46;19.40;99.90
17813;DHT22;9030;50.792;8.320;2023-07-29T06:24:12;19.30;99.90
17813;DHT22;9030;50.792;8.320;2023-07-29T06:26:39;19.20;99.90
17813;DHT22;9030;50.792;8.320;2023-07-29T06:29:05;19.10;99.90
17813;DHT22;9030;50.792;8.320;2023-07-29T06:31:33;19.00;99.90
17813;DHT22;9030;50.792;8.320;2023-07-29T06:34:00;18.90;99.90
17813;DHT22;9030;50.792;8.320;2023-07-29T06:36:27;19.00;99.90
17813;DHT22;9030;50.792;8.320;2023-07-29T06:38:53;19.00;99.90
17813;DHT22;9030;50.792;8.320;2023-07-29T06:41:20;18.90;99.90
17813;DHT22;9030;50.792;8.320;2023-07-29T06:43:46;18.90;99.90
17813;DHT22;9030;50.792;8.320;2023-07-29T06:46:13;18.90;99.90
17813;DHT22;9030;50.792;8.320;2023-07-29T06:48:41;18.90;99.90
17813;DHT22;9030;50.792;8.320;2023-07-29T06:51:08;18.90;99.90
17813;DHT22;9030;50.792;8.320;2023-07-29T06:53:34;18.90;99.90
17813;DHT22;9030;50.792;8.320;2023-07-29T06:56:01;19.00;99.90
17813;DHT22;9030;50.792;8.320;2023-07-29T06:58:28;19.00;99.90
17813;DHT22;9030;50.792;8.320;2023-07-29T07:00:54;19.10;99.90
17813;DHT22;9030;50.792;8.320;2023-07-29T07:03:21;19.10;99.90
17813;DHT22;9030;50.792;8.320;2023-07-29T07:05:50;19.20;99.90
17813;DHT22;9030;50.792;8.320;2023-07-29T07:08:17;19.20;99.90
17813;DHT22;9030;50.792;8.320;2023-07-29T07:10:43;19.20;99.90
17813;DHT22;9030;50.792;8.320;2023-07-29T07:13:10;19.20;99.90
17813;DHT22;9030;50.792;8.320;2023-07-29T07:15:36;19.20;99.90
17813;DHT22;9030;50.792;8.320;2023-07-29T07:18:03;19.20;99.90
17813;DHT22;9030;50.792;8.320;2023-07-29T07:20:30;19.20;99.90
17813;DHT22;9030;50.792;8.320;2023-07-29T07:22:58;19.20;99.90
17813;DHT22;9030;50.792;8.320;2023-07-29T07:25:24;19.20;99.90
17813;DHT22;9030;50.792;8.320;2023-07-29T07:27:51;19.20;99.90
17813;DHT22;9030;50.792;8.320;2023-07-29T07:30:17;19.30;99.90
17813;DHT22;9030;50.792;8.320;2023-07-29T07:32:44;19.40;99.90
17813;DHT22;9030;50.792;8.320;2023-07-29T07:35:11;19.50;99.90
17813;DHT22;9030;50.792;8.320;2023-07-29T07:37:38;19.60;99.90
17813;DHT22;9030;50.792;8.320;2023-07-29T07:40:07;19.80;99.90
17813;DHT22;9030;50.792;8.320;2023-07-29T07:42:34;19.90;99.90
17813;DHT22;9030;50.792;8.320;2023-07-29T07:45:01;19.90;99.90
17813;DHT22;9030;50.792;8.320;2023-07-29T07:47:27;19.90;99.90
17813;DHT22;9030;50.792;8.320;2023-07-29T07:49:54;19.70;99.90
17813;DHT22;9030;50.792;8.320;2023-07-29T07:52:20;19.70;99.90
17813;DHT22;9030;50.792;8.320;2023-07-29T07:54:51;19.80;99.90
17813;DHT22;9030;50.792;8.320;2023-07-29T07:57:20;20.00;99.90
17813;DHT22;9030;50.792;8.320;2023-07-29T07:59:47;20.20;99.90
17813;DHT22;9030;50.792;8.320;2023-07-29T08:02:14;20.40;99.90
17813;DHT22;9030;50.792;8.320;2023-07-29T08:04:41;20.80;99.90
17813;DHT22;9030;50.792;8.320;2023-07-29T08:07:07;21.20;99.90
17813;DHT22;9030;50.792;8.320;2023-07-29T08:09:34;21.60;99.90
17813;DHT22;9030;50.792;8.320;2023-07-29T08:12:00;21.80;99.90
17813;DHT22;9030;50.792;8.320;2023-07-29T08:14:28;22.00;99.90
17813;DHT22;9030;50.792;8.320;2023-07-29T08:16:55;21.30;99.90
17813;DHT22;9030;50.792;8.320;2023-07-29T08:19:21;20.90;99.90
17813;DHT22;9030;50.792;8.320;2023-07-29T08:21:48;20.60;99.90
17813;DHT22;9030;50.792;8.320;2023-07-29T08:24:15;20.60;99.90
17813;DHT22;9030;50.792;8.320;2023-07-29T08:26:41;20.90;99.90
17813;DHT22;9030;50.792;8.320;2023-07-29T08:29:08;21.40;99.90
17813;DHT22;9030;50.792;8.320;2023-07-29T08:31:36;21.30;99.90
17813;DHT22;9030;50.792;8.320;2023-07-29T08:34:03;21.90;99.90
17813;DHT22;9030;50.792;8.320;2023-07-29T08:36:29;22.30;99.90
17813;DHT22;9030;50.792;8.320;2023-07-29T08:38:56;21.90;99.90
17813;DHT22;9030;50.792;8.320;2023-07-29T08:41:26;21.80;99.90
17813;DHT22;9030;50.792;8.320;2023-07-29T08:43:59;21.90;99.90
17813;DHT22;9030;50.792;8.320;2023-07-29T08:46:28;21.60;99.90
17813;DHT22;9030;50.792;8.320;2023-07-29T08:48:57;21.20;99.90
17813;DHT22;9030;50.792;8.320;2023-07-29T08:51:24;20.90;99.90
17813;DHT22;9030;50.792;8.320;2023-07-29T08:53:51;20.90;99.90
17813;DHT22;9030;50.792;8.320;2023-07-29T08:56:18;21.00;99.90
17813;DHT22;9030;50.792;8.320;2023-07-29T08:58:45;21.20;99.90
17813;DHT22;9030;50.792;8.320;2023-07-29T09:01:13;21.10;99.90
17813;DHT22;9030;50.792;8.320;2023-07-29T09:03:41;21.30;99.90
17813;DHT22;9030;50.792;8.320;2023-07-29T09:06:09;21.70;99.90
17813;DHT22;9030;50.792;8.320;2023-07-29T09:08:37;22.20;99.90
17813;DHT22;9030;50.792;8.320;2023-07-29T09:11:03;22.60;99.90
17813;DHT22;9030;50.792;8.320;2023-07-29T09:13:30;22.60;99.90
17813;DHT22;9030;50.792;8.320;2023-07-29T09:15:57;22.90;99.90
17813;DHT22;9030;50.792;8.320;2023-07-29T09:18:26;22.60;99.90
17813;DHT22;9030;50.792;8.320;2023-07-29T09:20:53;22.10;99.90
17813;DHT22;9030;50.792;8.320;2023-07-29T09:23:21;22.30;99.90
17813;DHT22;9030;50.792;8.320;2023-07-29T09:25:48;22.90;99.90
17813;DHT22;9030;50.792;8.320;2023-07-29T09:28:16;23.50;99.90
17813;DHT22;9030;50.792;8.320;2023-07-29T09:30:44;24.20;99.90
17813;DHT22;9030;50.792;8.320;2023-07-29T09:33:11;24.30;99.90
17813;DHT22;9030;50.792;8.320;2023-07-29T09:35:38;23.90;99.90
17813;DHT22;9030;50.792;8.320;2023-07-29T09:38:06;23.70;99.90
17813;DHT22;9030;50.792;8.320;2023-07-29T09:40:39;23.70;99.90
17813;DHT22;9030;50.792;8.320;2023-07-29T09:43:07;24.00;99.90
17813;DHT22;9030;50.792;8.320;2023-07-29T09:45:34;23.60;99.90
17813;DHT22;9030;50.792;8.320;2023-07-29T09:48:02;23.20;99.90
17813;DHT22;9030;50.792;8.320;2023-07-29T09:50:30;22.70;99.90
17813;DHT22;9030;50.792;8.320;2023-07-29T09:52:57;22.20;99.90
17813;DHT22;9030;50.792;8.320;2023-07-29T09:55:25;22.30;99.90
17813;DHT22;9030;50.792;8.320;2023-07-29T09:57:56;22.00;99.90
17813;DHT22;9030;50.792;8.320;2023-07-29T10:00:23;21.90;99.90
17813;DHT22;9030;50.792;8.320;2023-07-29T10:02:50;21.80;99.90
17813;DHT22;9030;50.792;8.320;2023-07-29T10:05:18;22.00;99.90
17813;DHT22;9030;50.792;8.320;2023-07-29T10:07:45;22.20;99.90
17813;DHT22;9030;50.792;8.320;2023-07-29T10:10:12;22.60;99.90
17813;DHT22;9030;50.792;8.320;2023-07-29T10:12:39;23.10;99.90
17813;DHT22;9030;50.792;8.320;2023-07-29T10:15:10;23.30;99.90
17813;DHT22;9030;50.792;8.320;2023-07-29T10:17:38;24.10;99.90
17813;DHT22;9030;50.792;8.320;2023-07-29T10:20:07;24.80;99.90
17813;DHT22;9030;50.792;8.320;2023-07-29T10:22:37;24.20;99.90
17813;DHT22;9030;50.792;8.320;2023-07-29T10:25:05;23.10;99.90
17813;DHT22;9030;50.792;8.320;2023-07-29T10:27:38;22.30;99.90
17813;DHT22;9030;50.792;8.320;2023-07-29T10:30:10;21.80;99.90
17813;DHT22;9030;50.792;8.320;2023-07-29T10:32:38;21.80;99.90
17813;DHT22;9030;50.792;8.320;2023-07-29T10:35:05;21.70;99.90
17813;DHT22;9030;50.792;8.320;2023-07-29T10:37:33;21.80;99.90
17813;DHT22;9030;50.792;8.320;2023-07-29T10:39:59;21.70;99.90
17813;DHT22;9030;50.792;8.320;2023-07-29T10:42:26;21.60;99.90
17813;DHT22;9030;50.792;8.320;2023-07-29T10:44:53;21.20;99.90
17813;DHT22;9030;50.792;8.320;2023-07-29T10:47:23;21.10;99.90
17813;DHT22;9030;50.792;8.320;2023-07-29T10:49:52;21.00;99.90
17813;DHT22;9030;50.792;8.320;2023-07-29T10:52:40;21.00;99.90
17813;DHT22;9030;50.792;8.320;2023-07-29T10:55:25;21.10;99.90
17813;DHT22;9030;50.792;8.320;2023-07-29T10:57:52;21.10;99.90
17813;DHT22;9030;50.792;8.320;2023-07-29T11:00:30;21.10;99.90
17813;DHT22;9030;50.792;8.320;2023-07-29T11:03:01;21.10;99.90
17813;DHT22;9030;50.792;8.320;2023-07-29T11:05:42;20.90;99.90
17813;DHT22;9030;50.792;8.320;2023-07-29T11:08:16;21.00;99.90
17813;DHT22;9030;50.792;8.320;2023-07-29T11:10:43;21.10;99.90
17813;DHT22;9030;50.792;8.320;2023-07-29T11:13:10;21.30;99.90
17813;DHT22;9030;50.792;8.320;2023-07-29T11:15:38;21.60;99.90
17813;DHT22;9030;50.792;8.320;2023-07-29T11:18:08;21.70;99.90
17813;DHT22;9030;50.792;8.320;2023-07-29T11:20:37;21.60;99.90
17813;DHT22;9030;50.792;8.320;2023-07-29T11:23:03;21.60;99.90
17813;DHT22;9030;50.792;8.320;2023-07-29T11:25:31;21.60;99.90
17813;DHT22;9030;50.792;8.320;2023-07-29T11:27:59;21.50;99.90
17813;DHT22;9030;50.792;8.320;2023-07-29T11:30:26;21.50;99.90
17813;DHT22;9030;50.792;8.320;2023-07-29T11:32:55;21.70;99.90
17813;DHT22;9030;50.792;8.320;2023-07-29T11:35:23;21.70;99.90
17813;DHT22;9030;50.792;8.320;2023-07-29T11:37:51;21.80;99.90
17813;DHT22;9030;50.792;8.320;2023-07-29T11:40:20;21.90;99.90
17813;DHT22;9030;50.792;8.320;2023-07-29T11:42:48;22.00;99.90
17813;DHT22;9030;50.792;8.320;2023-07-29T11:45:16;22.00;99.90
17813;DHT22;9030;50.792;8.320;2023-07-29T11:47:42;22.20;99.90
17813;DHT22;9030;50.792;8.320;2023-07-29T11:50:10;23.50;99.90
17813;DHT22;9030;50.792;8.320;2023-07-29T11:52:42;24.50;99.90
17813;DHT22;9030;50.792;8.320;2023-07-29T11:55:09;23.90;99.90
17813;DHT22;9030;50.792;8.320;2023-07-29T11:57:37;23.20;99.90
17813;DHT22;9030;50.792;8.320;2023-07-29T12:00:05;22.80;99.90
17813;DHT22;9030;50.792;8.320;2023-07-29T12:02:33;22.90;99.90
17813;DHT22;9030;50.792;8.320;2023-07-29T12:05:03;22.40;99.90
17813;DHT22;9030;50.792;8.320;2023-07-29T12:07:30;23.40;99.90
17813;DHT22;9030;50.792;8.320;2023-07-29T12:10:00;23.30;99.90
17813;DHT22;9030;50.792;8.320;2023-07-29T12:12:28;22.20;99.90
17813;DHT22;9030;50.792;8.320;2023-07-29T12:14:56;21.90;99.90
17813;DHT22;9030;50.792;8.320;2023-07-29T12:17:22;22.20;99.90
17813;DHT22;9030;50.792;8.320;2023-07-29T12:19:49;22.40;99.90
17813;DHT22;9030;50.792;8.320;2023-07-29T12:22:19;23.20;99.90
17813;DHT22;9030;50.792;8.320;2023-07-29T12:24:46;23.50;99.90
17813;DHT22;9030;50.792;8.320;2023-07-29T12:27:14;23.30;99.90
17813;DHT22;9030;50.792;8.320;2023-07-29T12:29:42;23.30;99.90
17813;DHT22;9030;50.792;8.320;2023-07-29T12:32:09;23.90;99.90
17813;DHT22;9030;50.792;8.320;2023-07-29T12:34:37;23.20;99.90
17813;DHT22;9030;50.792;8.320;2023-07-29T12:37:05;22.90;99.90
17813;DHT22;9030;50.792;8.320;2023-07-29T12:39:34;24.10;99.90
17813;DHT22;9030;50.792;8.320;2023-07-29T12:42:02;24.10;99.90
17813;DHT22;9030;50.792;8.320;2023-07-29T12:44:32;24.60;99.90
17813;DHT22;9030;50.792;8.320;2023-07-29T12:47:01;24.30;99.90
17813;DHT22;9030;50.792;8.320;2023-07-29T12:49:28;23.90;99.90
17813;DHT22;9030;50.792;8.320;2023-07-29T12:51:55;23.40;99.90
17813;DHT22;9030;50.792;8.320;2023-07-29T12:54:22;23.10;99.90
17813;DHT22;9030;50.792;8.320;2023-07-29T12:56:49;22.90;99.90
17813;DHT22;9030;50.792;8.320;2023-07-29T12:59:16;22.60;99.90
17813;DHT22;9030;50.792;8.320;2023-07-29T13:01:44;23.30;99.90
17813;DHT22;9030;50.792;8.320;2023-07-29T13:04:11;23.10;99.90
17813;DHT22;9030;50.792;8.320;2023-07-29T13:06:38;23.20;99.90
17813;DHT22;9030;50.792;8.320;2023-07-29T13:09:04;22.90;99.90
17813;DHT22;9030;50.792;8.320;2023-07-29T13:11:31;22.70;99.90
17813;DHT22;9030;50.792;8.320;2023-07-29T13:13:58;23.10;99.90
17813;DHT22;9030;50.792;8.320;2023-07-29T13:16:26;23.40;99.90
17813;DHT22;9030;50.792;8.320;2023-07-29T13:18:54;24.20;99.90
17813;DHT22;9030;50.792;8.320;2023-07-29T13:21:20;25.00;99.90
17813;DHT22;9030;50.792;8.320;2023-07-29T13:23:47;24.80;99.90
17813;DHT22;9030;50.792;8.320;2023-07-29T13:26:13;24.10;99.90
17813;DHT22;9030;50.792;8.320;2023-07-29T13:28:39;23.80;99.90
17813;DHT22;9030;50.792;8.320;2023-07-29T13:31:06;23.50;99.90
17813;DHT22;9030;50.792;8.320;2023-07-29T13:33:32;23.90;99.90
17813;DHT22;9030;50.792;8.320;2023-07-29T13:36:01;23.50;99.90
17813;DHT22;9030;50.792;8.320;2023-07-29T13:38:28;22.90;99.90
17813;DHT22;9030;50.792;8.320;2023-07-29T13:40:55;22.70;99.90
17813;DHT22;9030;50.792;8.320;2023-07-29T13:43:21;22.30;99.90
17813;DHT22;9030;50.792;8.320;2023-07-29T13:45:48;22.40;99.90
17813;DHT22;9030;50.792;8.320;2023-07-29T13:48:15;22.70;99.90
17813;DHT22;9030;50.792;8.320;2023-07-29T13:50:42;23.20;99.90
17813;DHT22;9030;50.792;8.320;2023-07-29T13:53:10;24.00;99.90
17813;DHT22;9030;50.792;8.320;2023-07-29T13:55:37;24.60;99.90
17813;DHT22;9030;50.792;8.320;2023-07-29T13:58:03;24.90;99.90
17813;DHT22;9030;50.792;8.320;2023-07-29T14:00:30;25.30;99.90
17813;DHT22;9030;50.792;8.320;2023-07-29T14:02:57;25.70;99.90
17813;DHT22;9030;50.792;8.320;2023-07-29T14:05:23;25.90;99.90
17813;DHT22;9030;50.792;8.320;2023-07-29T14:07:50;25.70;99.90
17813;DHT22;9030;50.792;8.320;2023-07-29T14:10:18;26.10;99.90
17813;DHT22;9030;50.792;8.320;2023-07-29T14:12:44;26.10;99.90
17813;DHT22;9030;50.792;8.320;2023-07-29T14:15:11;25.70;99.90
17813;DHT22;9030;50.792;8.320;2023-07-29T14:17:38;25.40;99.90
17813;DHT22;9030;50.792;8.320;2023-07-29T14:20:05;25.10;99.90
17813;DHT22;9030;50.792;8.320;2023-07-29T14:22:32;24.40;99.90
17813;DHT22;9030;50.792;8.320;2023-07-29T14:24:59;23.90;99.90
17813;DHT22;9030;50.792;8.320;2023-07-29T14:27:27;24.00;99.90
17813;DHT22;9030;50.792;8.320;2023-07-29T14:29:53;24.40;99.90
17813;DHT22;9030;50.792;8.320;2023-07-29T14:32:20;24.70;99.90
17813;DHT22;9030;50.792;8.320;2023-07-29T14:34:47;24.70;99.90
17813;DHT22;9030;50.792;8.320;2023-07-29T14:37:14;24.40;99.90
17813;DHT22;9030;50.792;8.320;2023-07-29T14:39:41;23.90;99.90
17813;DHT22;9030;50.792;8.320;2023-07-29T14:42:07;23.90;99.90
17813;DHT22;9030;50.792;8.320;2023-07-29T14:44:35;23.50;99.90
17813;DHT22;9030;50.792;8.320;2023-07-29T14:47:02;23.20;99.90
17813;DHT22;9030;50.792;8.320;2023-07-29T14:49:29;23.10;99.90
17813;DHT22;9030;50.792;8.320;2023-07-29T14:51:55;23.20;99.90
17813;DHT22;9030;50.792;8.320;2023-07-29T14:54:22;23.40;99.90
17813;DHT22;9030;50.792;8.320;2023-07-29T14:56:49;23.00;99.90
17813;DHT22;9030;50.792;8.320;2023-07-29T14:59:15;22.90;99.90
17813;DHT22;9030;50.792;8.320;2023-07-29T15:01:43;22.90;99.90
17813;DHT22;9030;50.792;8.320;2023-07-29T15:04:10;22.80;99.90
17813;DHT22;9030;50.792;8.320;2023-07-29T15:06:36;22.50;99.90
17813;DHT22;9030;50.792;8.320;2023-07-29T15:09:04;22.40;99.90
17813;DHT22;9030;50.792;8.320;2023-07-29T15:11:31;22.40;99.90
17813;DHT22;9030;50.792;8.320;2023-07-29T15:13:58;22.60;99.90
17813;DHT22;9030;50.792;8.320;2023-07-29T15:16:25;22.70;99.90
17813;DHT22;9030;50.792;8.320;2023-07-29T15:18:53;22.60;99.90
17813;DHT22;9030;50.792;8.320;2023-07-29T15:21:19;22.70;99.90
17813;DHT22;9030;50.792;8.320;2023-07-29T15:23:46;22.30;99.90
17813;DHT22;9030;50.792;8.320;2023-07-29T15:26:13;22.20;99.90
17813;DHT22;9030;50.792;8.320;2023-07-29T15:28:39;22.00;99.90
17813;DHT22;9030;50.792;8.320;2023-07-29T15:31:06;21.80;99.90
17813;DHT22;9030;50.792;8.320;2023-07-29T15:33:33;21.80;99.90
17813;DHT22;9030;50.792;8.320;2023-07-29T15:36:01;21.50;99.90
17813;DHT22;9030;50.792;8.320;2023-07-29T15:38:28;21.30;99.90
17813;DHT22;9030;50.792;8.320;2023-07-29T15:40:54;21.00;99.90
17813;DHT22;9030;50.792;8.320;2023-07-29T15:43:21;20.90;99.90
17813;DHT22;9030;50.792;8.320;2023-07-29T15:45:48;20.90;99.90